Time;durP1;ratioP1;P1;durP2;ratioP2;P2;SDS_P1;SDS_P2;PMS_P1;PMS_P2;Temp;Humidity;BMP_temperature;BMP_pressure;BME280_temperature;BME280_humidity;BME280_pressure;Samples;Min_cycle;Max_cycle;Signal;HPM_P1;HPM_P2
2023/02/02 00:01:55;;;;;;;;;;;;;;;20.05;45.95;100310.75;5048575;28;3108;-60
2023/02/02 00:04:26;;;;;;;;;;;;;;;20.04;45.96;100317.16;5047442;28;2789;-61
2023/02/02 00:06:52;;;;;;;;;;;;;;;20.02;45.89;100302.69;5043234;28;2810;-61
2023/02/02 00:09:19;;;;;;;;;;;;;;;20.02;45.70;100302.69;5037498;28;3100;-61
2023/02/02 00:11:45;;;;;;;;;;;;;;;20.01;45.75;100307.72;5045545;28;3211;-61
2023/02/02 00:14:12;;;;;;;;;;;;;;;20.00;45.70;100300.50;5046556;28;2943;-61
2023/02/02 00:16:39;;;;;;;;;;;;;;;20.00;45.67;100317.03;5043566;28;2903;-61
2023/02/02 00:19:07;;;;;;;;;;;;;;;19.98;45.64;100309.03;5047007;28;2775;-61
2023/02/02 00:21:33;;;;;;;;;;;;;;;20.01;45.44;100310.59;5051131;28;2949;-61
2023/02/02 00:24:00;;;;;;;;;;;;;;;20.02;45.51;100319.94;5049286;28;3149;-61
2023/02/02 00:26:26;;;;;;;;;;;;;;;19.99;45.61;100310.50;5038931;28;2874;-61
2023/02/02 00:28:53;;;;;;;;;;;;;;;19.98;45.62;100309.03;5052264;28;3018;-61
2023/02/02 00:31:20;;;;;;;;;;;;;;;19.97;45.67;100301.06;5068716;28;2932;-61
2023/02/02 00:33:46;;;;;;;;;;;;;;;19.95;45.49;100298.88;5049485;28;2931;-61
2023/02/02 00:36:13;;;;;;;;;;;;;;;19.94;45.47;100300.25;5046137;28;3058;-61
2023/02/02 00:38:39;;;;;;;;;;;;;;;19.95;45.51;100298.13;5055246;28;2597;-61
2023/02/02 00:41:06;;;;;;;;;;;;;;;19.94;45.47;100300.25;5050638;28;2990;-61
2023/02/02 00:43:32;;;;;;;;;;;;;;;19.96;45.38;100297.47;5055006;28;2919;-61
2023/02/02 00:45:58;;;;;;;;;;;;;;;19.97;45.49;100298.94;5052714;28;2612;-61
2023/02/02 00:48:25;;;;;;;;;;;;;;;19.98;45.29;100300.44;5046489;28;2914;-62
2023/02/02 00:50:52;;;;;;;;;;;;;;;19.98;45.41;100303.31;5053516;28;2751;-62
2023/02/02 00:53:18;;;;;;;;;;;;;;;20.00;45.37;100303.38;5055091;28;2807;-62
2023/02/02 00:55:45;;;;;;;;;;;;;;;20.01;45.35;100301.97;5054974;28;2968;-62
2023/02/02 00:58:12;;;;;;;;;;;;;;;20.03;45.37;100307.81;5052559;28;2915;-62
2023/02/02 01:00:38;;;;;;;;;;;;;;;20.03;45.53;100307.06;5051397;28;2928;-61
2023/02/02 01:03:05;;;;;;;;;;;;;;;20.01;45.56;100290.47;5059704;28;2532;-61
2023/02/02 01:05:32;;;;;;;;;;;;;;;20.00;45.62;100305.53;5054408;28;2838;-61
2023/02/02 01:07:59;;;;;;;;;;;;;;;20.00;45.52;100312.00;5050013;28;2832;-62
2023/02/02 01:10:25;;;;;;;;;;;;;;;20.00;45.46;100311.28;5060287;28;2813;-61
2023/02/02 01:12:52;;;;;;;;;;;;;;;19.99;45.52;100322.00;5052365;28;2756;-62
2023/02/02 01:15:19;;;;;;;;;;;;;;;19.98;45.56;100314.06;5053764;28;2562;-62
2023/02/02 01:17:45;;;;;;;;;;;;;;;19.98;45.63;100314.06;5055365;28;3042;-62
2023/02/02 01:20:15;;;;;;;;;;;;;;;19.99;45.55;100310.50;5051196;28;2895;-61
2023/02/02 01:22:41;;;;;;;;;;;;;;;19.98;45.50;100314.06;5062504;28;2833;-62
2023/02/02 01:25:08;;;;;;;;;;;;;;;19.96;45.68;100329.09;5051245;28;3258;-62
2023/02/02 01:27:34;;;;;;;;;;;;;;;19.95;45.64;100304.63;5054231;28;2797;-61
2023/02/02 01:30:00;;;;;;;;;;;;;;;19.95;45.64;100339.09;5053266;28;2893;-62
2023/02/02 01:32:27;;;;;;;;;;;;;;;19.93;45.67;100341.91;5050344;28;2838;-62
2023/02/02 01:34:53;;;;;;;;;;;;;;;19.93;45.67;100349.75;5055664;28;3012;-61
2023/02/02 01:37:21;;;;;;;;;;;;;;;19.92;45.48;100354.03;5057618;28;2817;-61
2023/02/02 01:39:47;;;;;;;;;;;;;;;19.93;45.62;100346.88;5054937;28;2892;-61
2023/02/02 01:42:14;;;;;;;;;;;;;;;19.90;45.68;100351.81;5060100;28;2949;-62
2023/02/02 01:44:59;;;;;;;;;;;;;;;19.90;45.68;100336.72;5050503;28;2907;-62
2023/02/02 01:47:26;;;;;;;;;;;;;;;19.90;45.75;100348.22;5056469;28;3084;-62
2023/02/02 01:49:52;;;;;;;;;;;;;;;19.92;45.63;100339.69;5051958;28;2857;-62
2023/02/02 01:52:19;;;;;;;;;;;;;;;19.92;45.54;100351.16;5038734;28;2875;-62
2023/02/02 01:54:46;;;;;;;;;;;;;;;19.92;45.51;100343.28;5049585;28;2923;-61
2023/02/02 01:57:15;;;;;;;;;;;;;;;19.93;45.58;100341.91;5058473;28;2724;-62
2023/02/02 01:59:43;;;;;;;;;;;;;;;19.96;45.60;100354.94;5036985;28;2487;-61
2023/02/02 02:02:09;;;;;;;;;;;;;;;19.95;45.57;100350.59;5050252;28;2941;-62
2023/02/02 02:04:36;;;;;;;;;;;;;;;19.96;45.61;100346.31;5050113;28;2751;-62
2023/02/02 02:07:03;;;;;;;;;;;;;;;19.96;45.77;100352.06;5039466;28;2906;-61
2023/02/02 02:16:34;;;;;;;;;;;;;;;19.96;45.61;100363.56;5043027;28;3142;-61
2023/02/02 02:19:26;;;;;;;;;;;;;;;19.97;45.80;100365.03;5056759;28;2849;-62
2023/02/02 02:27:57;;;;;;;;;;;;;;;19.91;46.05;100373.44;5050357;28;2830;-61
2023/02/02 02:30:29;;;;;;;;;;;;;;;19.91;46.01;100361.94;5048132;28;2937;-61
2023/02/02 02:32:55;;;;;;;;;;;;;;;19.91;45.89;100367.69;5051429;28;2879;-61
2023/02/02 02:35:27;;;;;;;;;;;;;;;19.91;45.76;100369.81;5064113;28;2981;-61
2023/02/02 02:37:58;;;;;;;;;;;;;;;19.87;45.75;100362.50;5054703;28;2823;-61
2023/02/02 02:40:27;;;;;;;;;;;;;;;19.87;45.86;100376.13;5041014;28;2878;-61
2023/02/02 02:42:54;;;;;;;;;;;;;;;19.87;45.77;100376.13;5035938;28;2921;-62
2023/02/02 02:45:21;;;;;;;;;;;;;;;19.86;45.80;100371.78;5046760;28;2965;-61
2023/02/02 02:47:48;;;;;;;;;;;;;;;19.85;45.83;100376.03;5057052;28;3267;-61
2023/02/02 02:50:15;;;;;;;;;;;;;;;19.84;45.80;100375.31;5043399;28;2735;-61
2023/02/02 02:52:41;;;;;;;;;;;;;;;19.83;45.78;100404.69;5052064;28;2800;-61
2023/02/02 02:55:08;;;;;;;;;;;;;;;19.83;45.82;100396.06;5035306;28;2822;-61
2023/02/02 02:57:48;;;;;;;;;;;;;;;19.82;45.84;100397.47;5055489;28;2764;-61
2023/02/02 03:00:20;;;;;;;;;;;;;;;19.83;45.62;100404.69;5045057;28;2926;-61
2023/02/02 03:02:48;;;;;;;;;;;;;;;19.81;45.70;100398.84;5046009;28;2746;-62
2023/02/02 03:05:14;;;;;;;;;;;;;;;19.82;45.74;100411.84;5046312;28;2878;-62
2023/02/02 03:07:41;;;;;;;;;;;;;;;19.80;45.73;100421.09;5050415;28;2640;-62
2023/02/02 03:10:08;;;;;;;;;;;;;;;19.79;45.73;100419.63;5046633;28;2947;-61
2023/02/02 03:12:42;;;;;;;;;;;;;;;19.78;45.75;100417.41;5050051;28;3049;-61
2023/02/02 03:15:08;;;;;;;;;;;;;;;19.77;45.70;100433.16;5053156;28;2917;-61
2023/02/02 03:17:34;;;;;;;;;;;;;;;19.77;45.51;100444.66;5053968;28;2741;-62
2023/02/02 03:20:01;;;;;;;;;;;;;;;19.76;45.57;100449.66;5052274;28;2609;-62
2023/02/02 03:22:27;;;;;;;;;;;;;;;19.75;45.59;100453.94;5055527;28;2640;-62
2023/02/02 03:24:53;;;;;;;;;;;;;;;19.76;45.55;100448.94;5052166;28;2816;-61
2023/02/02 03:27:20;;;;;;;;;;;;;;;19.75;45.53;100458.94;5055252;28;2852;-61
2023/02/02 03:29:46;;;;;;;;;;;;;;;19.76;45.43;100472.66;5052876;28;2927;-62
2023/02/02 03:32:12;;;;;;;;;;;;;;;19.79;45.52;100464.84;5046011;28;2872;-62
2023/02/02 03:34:39;;;;;;;;;;;;;;;19.79;45.55;100470.59;5051178;28;2839;-62
2023/02/02 03:37:05;;;;;;;;;;;;;;;19.79;45.44;100482.84;5047496;28;2994;-61
2023/02/02 03:39:31;;;;;;;;;;;;;;;19.81;45.45;100474.31;5053724;28;2896;-62
2023/02/02 03:41:57;;;;;;;;;;;;;;;19.81;45.48;100485.81;5047217;28;2959;-62
2023/02/02 03:44:24;;;;;;;;;;;;;;;19.82;45.43;100487.28;5051721;28;2714;-62
2023/02/02 03:46:53;;;;;;;;;;;;;;;19.82;45.46;100486.53;5051229;28;2902;-62
2023/02/02 03:49:20;;;;;;;;;;;;;;;19.84;45.66;100489.50;5049675;28;3124;-62
2023/02/02 03:51:46;;;;;;;;;;;;;;;19.87;45.73;100502.56;5049213;28;2766;-62
2023/02/02 03:54:13;;;;;;;;;;;;;;;19.87;45.96;100496.81;5051427;28;2867;-62
2023/02/02 03:56:39;;;;;;;;;;;;;;;19.88;45.88;100496.16;5048237;28;2893;-62
2023/02/02 03:59:05;;;;;;;;;;;;;;;19.90;45.92;100509.84;5049174;28;2806;-62
2023/02/02 04:01:32;;;;;;;;;;;;;;;19.89;45.80;100499.78;5050827;28;2738;-62
2023/02/02 04:03:58;;;;;;;;;;;;;;;19.90;45.89;100515.59;5054599;28;3104;-62
2023/02/02 04:06:24;;;;;;;;;;;;;;;19.90;45.89;100521.34;5052298;28;2823;-62
2023/02/02 04:08:51;;;;;;;;;;;;;;;19.91;46.00;100519.25;5046827;28;2914;-62
2023/02/02 04:11:17;;;;;;;;;;;;;;;19.90;46.05;100527.09;5051193;28;3058;-62
2023/02/02 04:13:43;;;;;;;;;;;;;;;19.92;45.98;100532.19;5048500;28;2864;-61
2023/02/02 04:16:10;;;;;;;;;;;;;;;19.92;45.87;100540.81;5045574;28;2727;-62
2023/02/02 04:18:36;;;;;;;;;;;;;;;19.91;46.08;100537.22;5046462;28;2887;-62
2023/02/02 04:21:03;;;;;;;;;;;;;;;19.93;46.03;100545.16;5049998;28;2915;-62
2023/02/02 04:23:29;;;;;;;;;;;;;;;19.93;45.79;100548.81;5053794;28;2815;-62
2023/02/02 04:25:56;;;;;;;;;;;;;;;19.95;45.84;100562.50;5053879;28;3052;-62
2023/02/02 04:28:22;;;;;;;;;;;;;;;19.95;46.07;100574.75;5052802;28;3033;-62
2023/02/02 04:30:49;;;;;;;;;;;;;;;19.95;45.98;100569.00;5054903;28;3031;-62
2023/02/02 04:33:15;;;;;;;;;;;;;;;19.96;46.13;100575.50;5054521;28;2922;-61
2023/02/02 04:35:42;;;;;;;;;;;;;;;19.95;46.17;100574.75;5055630;28;2917;-61
2023/02/02 04:38:08;;;;;;;;;;;;;;;19.95;46.24;100576.88;5052940;28;2782;-61
2023/02/02 04:40:38;;;;;;;;;;;;;;;19.94;46.09;100573.25;5050341;28;2907;-61
2023/02/02 04:43:05;;;;;;;;;;;;;;;19.96;45.98;100576.22;5050515;28;2513;-61
2023/02/02 04:45:31;;;;;;;;;;;;;;;19.96;45.98;100576.22;5051289;28;2882;-62
2023/02/02 04:47:57;;;;;;;;;;;;;;;19.95;45.90;100589.13;5053230;28;2940;-61
2023/02/02 04:50:24;;;;;;;;;;;;;;;19.96;45.89;100593.47;5054022;28;3000;-61
2023/02/02 04:52:50;;;;;;;;;;;;;;;19.98;46.06;100596.44;5053347;28;2887;-62
2023/02/02 04:55:16;;;;;;;;;;;;;;;19.99;46.02;100591.41;5053107;28;2895;-62
2023/02/02 04:57:43;;;;;;;;;;;;;;;19.99;46.07;100597.91;5051396;28;2842;-62
2023/02/02 05:00:12;;;;;;;;;;;;;;;19.99;46.06;100597.91;5052743;28;2775;-61
2023/02/02 05:02:39;;;;;;;;;;;;;;;19.98;46.01;100607.94;5055212;28;2559;-62
2023/02/02 05:05:05;;;;;;;;;;;;;;;19.98;46.06;100613.69;5053191;28;2866;-62
2023/02/02 05:07:32;;;;;;;;;;;;;;;19.98;46.08;100630.91;5050312;28;2864;-62
2023/02/02 05:09:58;;;;;;;;;;;;;;;19.97;46.12;100629.41;5054357;28;2731;-62
2023/02/02 05:12:24;;;;;;;;;;;;;;;19.98;46.09;100639.53;5055040;28;3133;-62
2023/02/02 05:14:51;;;;;;;;;;;;;;;19.98;46.07;100639.53;5050705;28;2738;-62
2023/02/02 05:17:17;;;;;;;;;;;;;;;20.00;46.20;100651.13;5050264;28;2821;-62
2023/02/02 05:19:44;;;;;;;;;;;;;;;20.00;45.99;100656.88;5047537;28;2902;-62
2023/02/02 05:22:10;;;;;;;;;;;;;;;20.01;46.03;100649.72;5048102;28;2798;-61
2023/02/02 05:24:36;;;;;;;;;;;;;;;20.01;46.10;100669.13;5052271;28;2882;-62
2023/02/02 05:27:02;;;;;;;;;;;;;;;20.01;46.23;100669.13;5048912;28;2818;-62
2023/02/02 05:29:29;;;;;;;;;;;;;;;20.00;46.15;100674.13;5044667;28;2735;-62
2023/02/02 05:31:55;;;;;;;;;;;;;;;19.99;46.02;100678.38;5045850;28;2926;-62
2023/02/02 05:34:22;;;;;;;;;;;;;;;20.00;46.10;100679.88;5052237;28;2990;-62
2023/02/02 05:36:48;;;;;;;;;;;;;;;20.00;46.17;100679.88;5048424;28;3439;-62
2023/02/02 05:39:15;;;;;;;;;;;;;;;20.00;46.17;100679.88;5049781;28;2896;-61
2023/02/02 05:41:41;;;;;;;;;;;;;;;19.99;46.09;100689.88;5045284;28;2962;-62
2023/02/02 05:44:08;;;;;;;;;;;;;;;20.01;45.99;100692.84;5055782;28;2728;-62
2023/02/02 05:46:34;;;;;;;;;;;;;;;20.02;46.15;100700.09;5054464;28;2869;-62
2023/02/02 05:49:03;;;;;;;;;;;;;;;20.01;46.13;100704.34;5052320;28;1803;-62
2023/02/02 05:51:30;;;;;;;;;;;;;;;20.03;45.95;100707.31;5059855;28;2600;-62
2023/02/02 05:53:57;;;;;;;;;;;;;;;20.03;46.15;100707.31;5053544;28;2801;-62
2023/02/02 05:56:26;;;;;;;;;;;;;;;20.04;46.11;100713.78;5051595;28;2574;-62
2023/02/02 05:58:52;;;;;;;;;;;;;;;20.03;46.14;100706.56;5048562;28;2907;-62
2023/02/02 06:01:20;;;;;;;;;;;;;;;20.03;46.13;100713.06;5052182;28;2942;-62
2023/02/02 06:03:46;;;;;;;;;;;;;;;20.02;45.86;100723.09;5049140;28;2994;-62
2023/02/02 06:06:12;;;;;;;;;;;;;;;20.02;46.06;100728.81;5046523;28;3275;-62
2023/02/02 06:08:39;;;;;;;;;;;;;;;20.02;46.13;100734.56;5050274;28;3421;-62
2023/02/02 06:11:11;;;;;;;;;;;;;;;20.02;46.07;100734.56;5052013;28;2095;-62
2023/02/02 06:13:38;;;;;;;;;;;;;;;20.04;46.02;100737.56;5058932;28;2884;-62
2023/02/02 06:16:04;;;;;;;;;;;;;;;20.04;46.19;100746.16;5052718;28;2767;-61
2023/02/02 06:18:31;;;;;;;;;;;;;;;20.06;46.35;100754.88;5046236;28;2927;-62
2023/02/02 06:20:57;;;;;;;;;;;;;;;20.06;46.26;100752.00;5048365;28;2973;-61
2023/02/02 06:23:24;;;;;;;;;;;;;;;20.07;46.23;100753.50;5049184;28;2923;-62
2023/02/02 06:25:50;;;;;;;;;;;;;;;20.06;46.28;100754.88;5054547;28;2803;-62
2023/02/02 06:28:16;;;;;;;;;;;;;;;20.06;46.28;100769.25;5058717;28;2904;-62
2023/02/02 06:30:43;;;;;;;;;;;;;;;20.06;46.42;100752.00;5050640;28;2897;-62
2023/02/02 06:33:09;;;;;;;;;;;;;;;20.05;46.37;100764.88;5050112;28;3066;-62
2023/02/02 06:35:36;;;;;;;;;;;;;;;20.09;46.24;100779.47;5043694;28;2960;-66
2023/02/02 06:38:02;;;;;;;;;;;;;;;19.80;45.54;100782.38;5047553;28;3021;-65
2023/02/02 06:40:28;;;;;;;;;;;;;;;19.91;46.56;100780.75;5052211;28;3053;-67
2023/02/02 06:42:58;;;;;;;;;;;;;;;20.18;46.53;100780.56;5050790;28;3030;-68
2023/02/02 06:45:24;;;;;;;;;;;;;;;20.28;46.42;100789.66;5059304;28;3186;-68
2023/02/02 06:47:51;;;;;;;;;;;;;;;20.34;46.13;100791.31;5055842;28;3961;-68
2023/02/02 06:50:17;;;;;;;;;;;;;;;20.38;46.18;100803.00;5053089;28;3093;-67
2023/02/02 06:52:49;;;;;;;;;;;;;;;20.37;46.03;100802.28;5047315;28;3073;-68
2023/02/02 06:55:16;;;;;;;;;;;;;;;20.50;46.14;100810.06;5050382;28;3036;-67
2023/02/02 06:57:42;;;;;;;;;;;;;;;20.49;45.47;100802.06;5046748;28;2977;-68
2023/02/02 07:00:09;;;;;;;;;;;;;;;20.52;45.10;100818.03;5054772;28;2958;-68
2023/02/02 07:02:35;;;;;;;;;;;;;;;20.53;45.07;100818.78;5047363;28;3151;-67
2023/02/02 07:05:01;;;;;;;;;;;;;;;20.53;44.94;100813.03;5042727;28;3104;-67
2023/02/02 07:07:31;;;;;;;;;;;;;;;20.31;44.72;100822.13;5046633;28;3124;-63
2023/02/02 07:09:58;;;;;;;;;;;;;;;20.49;44.23;100834.44;5053683;28;3022;-67
2023/02/02 07:12:25;;;;;;;;;;;;;;;20.55;44.06;100836.13;5062117;28;2654;-70
2023/02/02 07:14:52;;;;;;;;;;;;;;;20.50;43.55;100838.81;5061019;28;2788;-70
2023/02/02 07:17:18;;;;;;;;;;;;;;;20.48;43.34;100840.88;5060693;28;3312;-70
2023/02/02 07:19:45;;;;;;;;;;;;;;;20.55;43.31;100847.63;5056734;28;2885;-70
2023/02/02 07:22:11;;;;;;;;;;;;;;;20.51;42.84;100851.81;5052668;28;3208;-71
2023/02/02 07:24:37;;;;;;;;;;;;;;;20.40;42.25;100858.47;5050779;28;2833;-70
2023/02/02 07:27:04;;;;;;;;;;;;;;;20.44;42.16;100858.69;5049113;28;3100;-70
2023/02/02 07:29:30;;;;;;;;;;;;;;;20.45;42.36;100860.16;5052516;28;3350;-76
2023/02/02 07:31:56;;;;;;;;;;;;;;;20.41;42.47;100854.22;5054142;28;2951;-70
2023/02/02 07:34:23;;;;;;;;;;;;;;;20.58;42.52;100861.50;5058204;28;2378;-73
2023/02/02 07:36:49;;;;;;;;;;;;;;;20.70;42.81;100872.81;5050752;28;2803;-71
2023/02/02 07:39:15;;;;;;;;;;;;;;;20.66;42.53;100872.59;5054458;28;2939;-70
2023/02/02 07:41:42;;;;;;;;;;;;;;;20.68;42.67;100869.81;5050510;28;2942;-72
2023/02/02 07:44:21;;;;;;;;;;;;;;;20.79;42.79;100880.41;5054137;28;2961;-66
2023/02/02 07:46:48;;;;;;;;;;;;;;;20.85;43.10;100883.56;5051445;28;2947;-66
2023/02/02 07:49:15;;;;;;;;;;;;;;;20.82;42.74;100890.63;5049816;28;3020;-66
2023/02/02 07:51:41;;;;;;;;;;;;;;;20.86;43.10;100890.78;5055125;28;3515;-66
2023/02/02 07:54:12;;;;;;;;;;;;;;;20.73;43.54;100888.78;5047391;28;3041;-65
2023/02/02 07:56:39;;;;;;;;;;;;;;;20.63;43.92;100914.19;5048339;28;3004;-64
2023/02/02 07:59:05;;;;;;;;;;;;;;;20.59;44.10;100902.50;5048368;28;2983;-67
2023/02/02 08:01:31;;;;;;;;;;;;;;;20.57;44.10;100908.16;5047773;28;3045;-67
2023/02/02 08:03:59;;;;;;;;;;;;;;;20.57;44.20;100906.03;5044653;28;3546;-66
2023/02/02 08:06:30;;;;;;;;;;;;;;;20.56;44.39;100913.19;5044186;28;2880;-66
2023/02/02 08:08:56;;;;;;;;;;;;;;;20.57;44.41;100916.78;5051019;28;3302;-68
2023/02/02 08:11:23;;;;;;;;;;;;;;;20.56;44.47;100921.03;5051834;28;2961;-68
2023/02/02 08:13:50;;;;;;;;;;;;;;;20.54;44.60;100923.81;5057047;28;2497;-68
2023/02/02 08:16:16;;;;;;;;;;;;;;;20.51;44.77;100926.59;5048060;28;3197;-68
2023/02/02 08:18:43;;;;;;;;;;;;;;;20.51;44.74;100932.34;5050648;28;2984;-68
2023/02/02 08:21:09;;;;;;;;;;;;;;;20.51;44.90;100938.09;5047748;28;3417;-68
2023/02/02 08:23:36;;;;;;;;;;;;;;;20.50;44.87;100933.75;5051613;28;3073;-67
2023/02/02 08:26:06;;;;;;;;;;;;;;;20.49;44.81;100952.38;5049892;28;2857;-67
2023/02/02 08:28:34;;;;;;;;;;;;;;;20.40;44.88;100962.03;5045166;28;3067;-68
2023/02/02 08:31:26;;;;;;;;;;;;;;;20.36;44.60;100955.34;5046319;28;4291;-69
2023/02/02 08:33:53;;;;;;;;;;;;;;;20.55;44.57;100959.81;5047771;28;3021;-66
2023/02/02 08:36:20;;;;;;;;;;;;;;;20.63;44.86;100954.47;5051652;28;3198;-64
2023/02/02 08:38:47;;;;;;;;;;;;;;;20.81;44.84;100963.22;5054634;28;3139;-69
2023/02/02 08:41:14;;;;;;;;;;;;;;;20.98;45.14;100953.19;5047839;28;3171;-68
2023/02/02 08:43:40;;;;;;;;;;;;;;;21.04;44.66;100968.59;5055004;28;3141;-68
2023/02/02 08:46:07;;;;;;;;;;;;;;;21.09;44.82;100963.78;5054628;28;3067;-69
2023/02/02 08:48:34;;;;;;;;;;;;;;;21.19;44.80;100966.34;5053340;28;3149;-67
2023/02/02 08:51:00;;;;;;;;;;;;;;;21.20;44.64;100968.59;5059646;28;3285;-65
2023/02/02 08:53:26;;;;;;;;;;;;;;;21.24;44.48;100965.91;5043048;28;3214;-69
2023/02/02 08:55:56;;;;;;;;;;;;;;;21.19;44.69;100970.00;5045328;28;3141;-70
2023/02/02 08:58:22;;;;;;;;;;;;;;;21.16;45.10;100971.28;5051323;28;2966;-69
2023/02/02 09:00:49;;;;;;;;;;;;;;;21.28;45.03;100974.72;5051212;28;3134;-68
2023/02/02 09:03:15;;;;;;;;;;;;;;;21.31;44.96;100976.28;5049700;28;3014;-68
2023/02/02 09:05:43;;;;;;;;;;;;;;;21.31;44.65;100978.44;5046734;28;3058;-71
2023/02/02 09:08:09;;;;;;;;;;;;;;;21.25;44.74;100972.41;5057412;28;2910;-71
2023/02/02 09:10:35;;;;;;;;;;;;;;;21.23;45.07;100981.69;5055398;28;3008;-70
2023/02/02 09:13:02;;;;;;;;;;;;;;;21.31;45.08;100978.44;5048262;28;4793;-70
2023/02/02 09:15:28;;;;;;;;;;;;;;;21.31;45.22;100984.19;5059777;28;3144;-69
2023/02/02 09:17:55;;;;;;;;;;;;;;;21.27;45.12;100978.97;5055392;28;3134;-71
2023/02/02 09:20:21;;;;;;;;;;;;;;;21.30;45.17;100989.22;5047461;28;3357;-68
2023/02/02 09:22:47;;;;;;;;;;;;;;;21.31;44.89;100989.97;5053612;28;5170;-69
2023/02/02 09:25:14;;;;;;;;;;;;;;;21.33;45.34;100995.81;5055705;28;3060;-71
2023/02/02 09:27:40;;;;;;;;;;;;;;;21.34;45.10;101006.66;5049630;28;3328;-70
2023/02/02 09:30:07;;;;;;;;;;;;;;;21.17;45.27;101004.47;5050864;28;3077;-69
2023/02/02 09:32:33;;;;;;;;;;;;;;;21.10;45.23;101009.19;5048895;28;3075;-70
2023/02/02 09:35:00;;;;;;;;;;;;;;;21.00;45.52;101007.97;5045368;28;4457;-74
2023/02/02 09:37:26;;;;;;;;;;;;;;;21.07;45.88;101007.63;5051941;28;3029;-70
2023/02/02 09:39:53;;;;;;;;;;;;;;;21.18;46.00;101016.72;5057200;28;3013;-70
2023/02/02 09:42:28;;;;;;;;;;;;;;;21.24;45.96;101026.38;5056269;28;2997;-71
2023/02/02 09:44:58;;;;;;;;;;;;;;;21.31;45.81;101031.00;5068111;28;3543;-71
2023/02/02 09:47:46;;;;;;;;;;;;;;;21.34;45.76;101026.81;5046143;28;3673;-68
2023/02/02 09:50:17;;;;;;;;;;;;;;;21.38;45.65;101022.66;5048940;28;2906;-74
2023/02/02 09:52:51;;;;;;;;;;;;;;;21.41;45.78;101030.00;5046678;28;4940;-70
2023/02/02 09:55:33;;;;;;;;;;;;;;;21.42;45.88;101028.63;5052658;28;3197;-70
2023/02/02 09:58:10;;;;;;;;;;;;;;;21.44;45.79;101037.34;5053712;28;3000;-72
2023/02/02 10:00:37;;;;;;;;;;;;;;;21.43;45.63;101030.84;5049395;28;3079;-71
2023/02/02 10:03:05;;;;;;;;;;;;;;;21.46;45.82;101034.56;5045987;28;3592;-71
2023/02/02 10:05:41;;;;;;;;;;;;;;;21.51;45.76;101042.00;5051933;28;2917;-71
2023/02/02 10:08:07;;;;;;;;;;;;;;;21.52;45.75;101035.56;5054479;28;3079;-71
2023/02/02 10:10:38;;;;;;;;;;;;;;;21.56;45.69;101043.66;5054349;28;3076;-72
2023/02/02 10:13:16;;;;;;;;;;;;;;;21.49;45.65;101050.56;5054143;28;3273;-71
2023/02/02 10:15:44;;;;;;;;;;;;;;;21.48;45.88;101044.03;5048526;28;3003;-70
2023/02/02 10:18:33;;;;;;;;;;;;;;;21.50;45.85;101052.03;5053165;28;2711;-71
2023/02/02 10:21:00;;;;;;;;;;;;;;;21.45;45.70;101050.38;5048475;28;3047;-71
2023/02/02 10:23:26;;;;;;;;;;;;;;;21.56;45.79;101052.31;5054855;28;3070;-71
2023/02/02 10:25:56;;;;;;;;;;;;;;;21.59;45.81;101056.75;5055658;28;3415;-72
2023/02/02 10:28:26;;;;;;;;;;;;;;;21.67;45.48;101060.00;5053905;28;2955;-70
2023/02/02 10:30:54;;;;;;;;;;;;;;;21.67;45.63;101060.00;5059557;28;2930;-69
2023/02/02 10:33:25;;;;;;;;;;;;;;;21.69;45.72;101067.97;5051225;28;3228;-69
2023/02/02 10:36:10;;;;;;;;;;;;;;;21.66;45.44;101064.28;5057528;28;3179;-74
2023/02/02 10:38:39;;;;;;;;;;;;;;;21.69;45.61;101071.63;5055245;28;2712;-71
2023/02/02 10:41:24;;;;;;;;;;;;;;;21.69;45.77;101073.75;5054301;28;2946;-74
2023/02/02 10:43:56;;;;;;;;;;;;;;;21.66;45.95;101072.91;5052500;28;3008;-72
2023/02/02 10:46:23;;;;;;;;;;;;;;;21.65;46.02;101074.31;5054226;28;3241;-75
2023/02/02 10:48:51;;;;;;;;;;;;;;;21.66;45.82;101078.69;5053826;28;2968;-75
2023/02/02 10:51:22;;;;;;;;;;;;;;;21.67;45.96;101085.94;5050372;28;3158;-73
2023/02/02 10:53:50;;;;;;;;;;;;;;;21.68;46.02;101090.31;5055608;28;2958;-72
2023/02/02 10:56:25;;;;;;;;;;;;;;;21.73;45.95;101088.34;5046107;28;3114;-72
2023/02/02 10:58:56;;;;;;;;;;;;;;;21.83;45.79;101088.03;5055206;28;2687;-72
2023/02/02 11:01:23;;;;;;;;;;;;;;;21.92;45.67;101101.41;5053995;28;2232;-71
2023/02/02 11:06:48;;;;;;;;;;;;;;;21.90;45.75;101098.47;5058126;28;2926;-68
2023/02/02 11:06:51;;;;;;;;;;;;;;;21.90;46.05;101099.22;5050866;28;2961;-67
2023/02/02 11:09:20;;;;;;;;;;;;;;;21.92;45.85;101112.94;5052848;28;2868;-69
2023/02/02 11:11:52;;;;;;;;;;;;;;;21.90;45.79;101122.28;5046639;28;2866;-70
2023/02/02 11:14:29;;;;;;;;;;;;;;;21.79;46.22;101116.72;5047982;28;2910;-72
2023/02/02 11:17:03;;;;;;;;;;;;;;;21.74;46.56;101133.81;5049119;28;3022;-69
2023/02/02 11:19:30;;;;;;;;;;;;;;;21.70;46.33;101124.97;5047786;28;3009;-70
2023/02/02 11:21:57;;;;;;;;;;;;;;;21.70;46.61;101133.63;5049503;28;2926;-67
2023/02/02 11:24:25;;;;;;;;;;;;;;;21.67;46.56;101126.31;5055197;28;2984;-68
2023/02/02 11:26:55;;;;;;;;;;;;;;;21.70;46.63;101133.63;5045883;28;2921;-69
2023/02/02 11:29:32;;;;;;;;;;;;;;;21.71;46.66;101135.09;5039807;28;2883;-69
2023/02/02 11:32:17;;;;;;;;;;;;;;;21.71;46.65;101129.34;5068084;28;2821;-69
2023/02/02 11:34:44;;;;;;;;;;;;;;;21.69;46.14;101143.69;5048215;28;3230;-69
2023/02/02 11:37:11;;;;;;;;;;;;;;;21.72;46.21;101141.63;5044080;28;2859;-68
2023/02/02 11:39:39;;;;;;;;;;;;;;;21.71;46.24;101152.41;5048449;28;2940;-63
2023/02/02 11:42:15;;;;;;;;;;;;;;;21.70;46.53;101138.66;5047937;28;2905;-68
2023/02/02 11:44:42;;;;;;;;;;;;;;;21.69;46.50;101143.69;5053918;28;2800;-73
2023/02/02 11:47:13;;;;;;;;;;;;;;;21.70;46.58;101153.06;5045922;28;2945;-71
2023/02/02 11:49:41;;;;;;;;;;;;;;;21.72;46.67;101153.91;5054021;28;2991;-76
2023/02/02 11:52:12;;;;;;;;;;;;;;;21.71;46.65;101152.41;5057863;28;2744;-71
2023/02/02 11:54:41;;;;;;;;;;;;;;;21.72;46.45;101148.13;5048869;28;2729;-68
2023/02/02 11:57:07;;;;;;;;;;;;;;;21.72;46.64;101147.41;5054238;28;2919;-69
2023/02/02 11:59:37;;;;;;;;;;;;;;;21.70;46.77;101138.66;5063491;28;2931;-71
2023/02/02 12:02:16;;;;;;;;;;;;;;;21.68;46.81;101145.06;5054629;28;2848;-72
2023/02/02 12:04:42;;;;;;;;;;;;;;;21.71;46.83;101140.13;5054906;28;2734;-68
2023/02/02 12:07:28;;;;;;;;;;;;;;;21.73;46.72;101149.63;5052172;28;2804;-62
2023/02/02 12:10:00;;;;;;;;;;;;;;;21.62;48.41;101153.41;5048237;28;3179;-68
2023/02/02 12:12:27;;;;;;;;;;;;;;;21.64;47.20;101142.00;5051216;28;3057;-76
2023/02/02 12:14:56;;;;;;;;;;;;;;;21.53;46.72;101154.44;5044996;28;2854;-65
2023/02/02 12:17:25;;;;;;;;;;;;;;;21.48;46.33;101158.53;5053037;28;3158;-70
2023/02/02 12:20:10;;;;;;;;;;;;;;;21.60;46.15;101164.88;5044823;28;2827;-59
2023/02/02 12:22:40;;;;;;;;;;;;;;;21.59;46.23;101169.16;5047353;28;2798;-69
2023/02/02 12:25:13;;;;;;;;;;;;;;;21.46;46.51;101208.19;5044700;28;3580;-69
2023/02/02 12:27:58;;;;;;;;;;;;;;;21.22;45.75;101201.22;5041019;28;3036;-68
2023/02/02 12:30:33;;;;;;;;;;;;;;;21.01;45.34;101211.75;5043308;28;3125;-74
2023/02/02 12:33:12;;;;;;;;;;;;;;;20.91;44.89;101208.34;5052587;28;3021;-75
2023/02/02 12:35:47;;;;;;;;;;;;;;;20.83;45.33;101208.72;5051853;28;3391;-73
2023/02/02 12:38:19;;;;;;;;;;;;;;;20.77;44.82;101214.16;5043686;28;2983;-73
2023/02/02 12:41:05;;;;;;;;;;;;;;;20.75;44.35;101208.28;5051727;28;2800;-73
2023/02/02 12:43:38;;;;;;;;;;;;;;;20.76;44.16;101215.56;5050974;28;2843;-72
2023/02/02 12:46:08;;;;;;;;;;;;;;;20.72;44.35;101223.97;5056263;28;2983;-71
2023/02/02 12:48:37;;;;;;;;;;;;;;;20.71;43.98;101236.88;5056790;28;2959;-72
2023/02/02 12:51:03;;;;;;;;;;;;;;;20.64;43.94;101223.56;5055228;28;3009;-74
2023/02/02 12:53:36;;;;;;;;;;;;;;;20.99;44.19;101228.19;5047823;28;2911;-71
2023/02/02 12:56:09;;;;;;;;;;;;;;;21.15;44.12;101226.09;5048806;28;3206;-71
2023/02/02 12:58:49;;;;;;;;;;;;;;;21.26;44.33;101233.09;5052587;28;3230;-75
2023/02/02 13:01:22;;;;;;;;;;;;;;;21.12;43.88;101221.63;5045708;28;4862;-75
2023/02/02 13:03:49;;;;;;;;;;;;;;;21.27;45.18;101225.94;5060416;28;4374;-77
2023/02/02 13:06:34;;;;;;;;;;;;;;;21.37;45.46;101225.69;5055701;28;4373;-77
2023/02/02 13:09:02;;;;;;;;;;;;;;;21.45;45.68;101231.88;5053047;28;3283;-81